Time;durP1;ratioP1;P1;durP2;ratioP2;P2;SDS_P1;SDS_P2;PMS_P1;PMS_P2;Temp;Humidity;BMP_temperature;BMP_pressure;BME280_temperature;BME280_humidity;BME280_pressure;Samples;Min_cycle;Max_cycle;Signal;HPM_P1;HPM_P2
2023/07/10 00:00:56;;;;;;;7.50;3.55;;;22.70;99.90;;;;;;5049999;28;20039;-73
2023/07/10 00:03:21;;;;;;;8.30;4.10;;;22.70;99.90;;;;;;5049893;28;20035;-72
2023/07/10 00:05:47;;;;;;;7.57;4.32;;;22.70;99.90;;;;;;5050250;28;20358;-71
2023/07/10 00:08:13;;;;;;;11.00;4.75;;;22.70;99.90;;;;;;5050486;28;20124;-72
2023/07/10 00:10:38;;;;;;;8.35;4.55;;;22.70;99.90;;;;;;5048701;28;20037;-72
2023/07/10 00:13:04;;;;;;;9.45;4.25;;;22.70;99.90;;;;;;5049594;28;20021;-72
2023/07/10 00:15:30;;;;;;;12.23;4.07;;;22.70;99.90;;;;;;5049864;28;20063;-72
2023/07/10 00:17:56;;;;;;;8.82;4.20;;;22.60;99.90;;;;;;5049671;28;20049;-72
2023/07/10 00:20:27;;;;;;;9.77;4.53;;;22.60;99.90;;;;;;5049589;28;20040;-72
2023/07/10 00:22:53;;;;;;;6.38;3.30;;;22.50;99.90;;;;;;5050043;28;20021;-73
2023/07/10 00:25:20;;;;;;;7.65;4.50;;;22.50;99.90;;;;;;5049656;28;20029;-72
2023/07/10 00:27:48;;;;;;;9.88;4.43;;;22.50;99.90;;;;;;5049617;28;20459;-73
2023/07/10 00:30:25;;;;;;;9.52;4.47;;;22.50;99.90;;;;;;5049714;28;20036;-72
2023/07/10 00:32:53;;;;;;;6.75;3.88;;;22.40;99.90;;;;;;5048164;28;20438;-71
2023/07/10 00:35:24;;;;;;;14.13;4.38;;;22.40;99.90;;;;;;5049969;28;20290;-72
2023/07/10 00:38:10;;;;;;;7.22;4.20;;;22.40;99.90;;;;;;5049637;28;20037;-72
2023/07/10 00:40:36;;;;;;;10.02;4.43;;;22.40;99.90;;;;;;5049616;28;20066;-72
2023/07/10 00:43:20;;;;;;;7.78;4.22;;;22.40;99.90;;;;;;5049388;28;20349;-72
2023/07/10 00:45:48;;;;;;;8.57;4.43;;;22.30;99.90;;;;;;5051775;28;20033;-72
2023/07/10 00:48:26;;;;;;;9.73;4.40;;;22.30;99.90;;;;;;5052198;28;20498;-72
2023/07/10 00:50:51;;;;;;;10.30;4.50;;;22.30;99.90;;;;;;5052182;28;20041;-73
2023/07/10 00:53:25;;;;;;;10.10;4.75;;;22.30;99.90;;;;;;5053567;28;20524;-73
2023/07/10 00:55:54;;;;;;;8.05;4.40;;;22.30;99.90;;;;;;5052140;28;20043;-72
2023/07/10 00:58:28;;;;;;;7.32;4.32;;;22.30;99.90;;;;;;5053143;28;20045;-73
2023/07/10 01:01:10;;;;;;;7.63;4.40;;;22.30;99.90;;;;;;5051999;28;20060;-73
2023/07/10 01:03:37;;;;;;;11.73;4.78;;;22.40;99.90;;;;;;5053058;28;20515;-73
2023/07/10 01:06:07;;;;;;;;;;;22.40;99.90;;;;;;5052178;28;20167;-73
2023/07/10 01:08:32;;;;;;;7.63;3.75;;;22.40;99.90;;;;;;5052873;28;19913;-73
2023/07/10 01:10:59;;;;;;;9.40;4.32;;;22.40;99.90;;;;;;5053246;28;20473;-73
2023/07/10 01:13:25;;;;;;;9.43;4.38;;;22.40;99.90;;;;;;5051691;28;20033;-73
2023/07/10 01:15:51;;;;;;;7.45;3.90;;;22.40;99.90;;;;;;5051605;28;20397;-73
2023/07/10 01:18:18;;;;;;;10.35;4.20;;;22.40;99.90;;;;;;5052630;28;20390;-73
2023/07/10 01:20:47;;;;;;;9.98;4.45;;;22.40;99.90;;;;;;5051492;28;20115;-73
2023/07/10 01:23:13;;;;;;;10.10;4.65;;;22.40;99.90;;;;;;5052877;28;20028;-73
2023/07/10 01:25:55;;;;;;;9.82;4.22;;;22.50;99.90;;;;;;5052448;28;20136;-73
2023/07/10 01:28:22;;;;;;;10.55;4.40;;;22.50;99.90;;;;;;5052392;28;20037;-73
2023/07/10 01:30:51;;;;;;;10.30;4.40;;;22.40;99.90;;;;;;5052376;28;20091;-72
2023/07/10 01:33:26;;;;;;;9.75;4.07;;;22.50;99.90;;;;;;5052081;28;20168;-73
2023/07/10 01:35:54;;;;;;;7.57;4.80;;;22.50;99.90;;;;;;5060801;28;20025;-73
2023/07/10 01:38:26;;;;;;;8.48;4.25;;;22.50;99.90;;;;;;5072185;28;20024;-72
2023/07/10 01:40:55;;;;;;;7.10;4.45;;;22.50;99.90;;;;;;5072540;28;20036;-72
2023/07/10 01:43:20;;;;;;;9.40;4.70;;;22.40;99.90;;;;;;5072569;28;20043;-72
2023/07/10 01:45:48;;;;;;;7.68;4.63;;;22.50;99.90;;;;;;5072093;28;20028;-72
2023/07/10 01:48:17;;;;;;;13.18;4.68;;;22.40;99.90;;;;;;5072481;28;20032;-71
2023/07/10 01:50:43;;;;;;;8.32;4.57;;;22.40;99.90;;;;;;5071880;28;20108;-73
2023/07/10 01:53:10;;;;;;;9.00;4.13;;;22.40;99.90;;;;;;5072343;28;20403;-72
2023/07/10 01:55:46;;;;;;;7.37;4.40;;;22.40;99.90;;;;;;5070639;28;20024;-72
2023/07/10 01:58:12;;;;;;;7.38;4.57;;;22.50;99.90;;;;;;5071940;28;20489;-71
2023/07/10 02:00:40;;;;;;;6.15;3.70;;;22.50;99.90;;;;;;5071835;28;20041;-72
2023/07/10 02:03:05;;;;;;;10.07;5.15;;;22.60;99.90;;;;;;5071940;28;20024;-73
2023/07/10 02:05:31;;;;;;;9.02;4.28;;;22.60;99.90;;;;;;5071684;28;20021;-72
2023/07/10 02:07:56;;;;;;;10.75;5.00;;;22.60;99.90;;;;;;5071962;28;20073;-72
2023/07/10 02:10:22;;;;;;;8.27;4.47;;;22.60;99.90;;;;;;5071754;28;20161;-72
2023/07/10 02:12:48;;;;;;;7.97;4.35;;;22.60;99.90;;;;;;5071946;28;20134;-72
2023/07/10 02:15:14;;;;;;;14.90;5.32;;;22.50;99.90;;;;;;5070613;28;20070;-72
2023/07/10 02:17:39;;;;;;;10.60;4.95;;;22.60;99.90;;;;;;5071523;28;20052;-72
2023/07/10 02:20:05;;;;;;;10.50;4.93;;;22.50;99.90;;;;;;5072029;28;20029;-72
2023/07/10 02:22:32;;;;;;;8.07;5.32;;;22.60;99.90;;;;;;5071391;28;20032;-73
2023/07/10 02:24:57;;;;;;;9.32;4.88;;;22.60;99.90;;;;;;5071329;28;20037;-72
2023/07/10 02:27:23;;;;;;;13.60;4.93;;;22.70;99.90;;;;;;5071234;28;20033;-72
2023/07/10 02:29:48;;;;;;;9.70;4.63;;;22.80;99.90;;;;;;5071370;28;20062;-72
2023/07/10 02:32:14;;;;;;;9.48;4.93;;;22.80;99.90;;;;;;5071501;28;20021;-72
2023/07/10 02:34:40;;;;;;;10.35;5.25;;;22.80;99.90;;;;;;5070917;28;20087;-72
2023/07/10 02:37:06;;;;;;;13.70;5.90;;;22.80;99.90;;;;;;5070946;28;20107;-72
2023/07/10 02:39:31;;;;;;;10.05;4.78;;;22.80;99.90;;;;;;5070861;28;20098;-72
2023/07/10 02:41:57;;;;;;;11.93;4.90;;;22.80;99.90;;;;;;5071105;28;20328;-72
2023/07/10 02:44:22;;;;;;;10.75;4.97;;;22.80;99.90;;;;;;5070756;28;20090;-72
2023/07/10 02:46:48;;;;;;;10.13;5.03;;;22.70;99.90;;;;;;5070392;28;20027;-73
2023/07/10 02:49:14;;;;;;;9.70;4.10;;;22.70;99.90;;;;;;5070234;28;20355;-72
2023/07/10 02:51:39;;;;;;;13.27;5.28;;;22.60;99.90;;;;;;5070789;28;20144;-73
2023/07/10 02:54:13;;;;;;;11.50;5.75;;;22.60;99.90;;;;;;5070652;28;20032;-73
2023/07/10 02:56:39;;;;;;;9.27;5.40;;;22.60;99.90;;;;;;5069657;28;20454;-74
2023/07/10 02:59:04;;;;;;;8.98;5.00;;;22.60;99.90;;;;;;5070991;28;20094;-73
2023/07/10 03:01:30;;;;;;;11.27;5.45;;;22.70;99.90;;;;;;5069633;28;20021;-73
2023/07/10 03:03:56;;;;;;;10.45;5.03;;;22.50;99.90;;;;;;5070657;28;20020;-72
2023/07/10 03:06:23;;;;;;;12.65;6.10;;;22.50;99.90;;;;;;5070698;28;20522;-73
2023/07/10 03:08:49;;;;;;;13.02;5.70;;;22.50;99.90;;;;;;5069772;28;20032;-73
2023/07/10 03:11:16;;;;;;;12.27;5.47;;;22.50;99.90;;;;;;5069677;28;20051;-72
2023/07/10 03:13:42;;;;;;;20.23;6.03;;;22.50;99.90;;;;;;5070641;28;20108;-72
2023/07/10 03:16:13;;;;;;;10.13;5.68;;;22.50;99.90;;;;;;5070626;28;20128;-72
2023/07/10 03:18:39;;;;;;;10.77;6.00;;;22.60;99.90;;;;;;5070404;28;20377;-72
2023/07/10 03:21:06;;;;;;;14.48;6.30;;;22.60;99.90;;;;;;5070437;28;20039;-73
2023/07/10 03:23:32;;;;;;;9.23;5.18;;;22.60;99.90;;;;;;5070423;28;20021;-71
2023/07/10 03:25:58;;;;;;;14.32;6.28;;;22.60;99.90;;;;;;5070759;28;20448;-72
2023/07/10 03:28:23;;;;;;;9.30;5.25;;;22.60;99.90;;;;;;5070199;28;20102;-73
2023/07/10 03:30:50;;;;;;;10.43;5.57;;;22.60;99.90;;;;;;5070108;28;20071;-71
2023/07/10 03:33:17;;;;;;;14.43;5.38;;;22.60;99.90;;;;;;5070182;28;20080;-72
2023/07/10 03:35:48;;;;;;;11.20;5.13;;;22.60;99.90;;;;;;5070192;28;20048;-72
2023/07/10 03:38:15;;;;;;;13.63;5.20;;;22.60;99.90;;;;;;5070517;28;20094;-71
2023/07/10 03:40:55;;;;;;;14.90;4.95;;;22.60;99.90;;;;;;5069165;28;20478;-72
2023/07/10 03:43:21;;;;;;;15.48;5.38;;;22.40;99.90;;;;;;5068959;28;20106;-74
2023/07/10 03:45:47;;;;;;;10.23;4.90;;;22.30;99.90;;;;;;5069771;28;20530;-72
2023/07/10 03:48:13;;;;;;;19.65;5.20;;;22.30;99.90;;;;;;5069842;28;20051;-73
2023/07/10 03:50:39;;;;;;;11.85;5.28;;;22.30;99.90;;;;;;5069064;28;20035;-72
2023/07/10 03:53:05;;;;;;;11.02;5.25;;;22.30;99.90;;;;;;5069350;28;20029;-73
2023/07/10 03:55:30;;;;;;;11.68;5.35;;;22.40;99.90;;;;;;5070438;28;20093;-73
2023/07/10 03:57:56;;;;;;;19.73;6.07;;;22.40;99.90;;;;;;5068683;28;20043;-73
2023/07/10 04:00:22;;;;;;;13.65;5.60;;;22.40;99.90;;;;;;5069913;28;20032;-74
2023/07/10 04:02:47;;;;;;;13.48;5.60;;;22.40;99.90;;;;;;5070589;28;20032;-72
2023/07/10 04:05:13;;;;;;;15.27;5.43;;;22.40;99.90;;;;;;5070446;28;20029;-73
2023/07/10 04:07:38;;;;;;;12.20;5.57;;;22.40;99.90;;;;;;5068674;28;20037;-73
2023/07/10 04:10:04;;;;;;;12.25;4.93;;;22.20;99.90;;;;;;5069699;28;20063;-73
2023/07/10 04:12:30;;;;;;;14.02;5.30;;;22.30;99.90;;;;;;5069972;28;20073;-73
2023/07/10 04:14:56;;;;;;;15.05;6.20;;;22.30;99.90;;;;;;5069701;28;20486;-72
2023/07/10 04:17:21;;;;;;;14.85;5.28;;;22.40;99.90;;;;;;5069645;28;20445;-74
2023/07/10 04:19:47;;;;;;;18.23;5.65;;;22.40;99.90;;;;;;5072526;28;20028;-73
2023/07/10 04:22:13;;;;;;;15.15;6.30;;;22.30;99.90;;;;;;5073715;28;20032;-73
2023/07/10 04:24:38;;;;;;;17.13;5.75;;;22.40;99.90;;;;;;5073618;28;20068;-73
2023/07/10 04:27:04;;;;;;;13.90;6.03;;;22.20;99.90;;;;;;5072310;28;20104;-73
2023/07/10 04:29:30;;;;;;;10.23;5.72;;;22.20;99.90;;;;;;5073500;28;20042;-73
2023/07/10 04:31:56;;;;;;;10.00;5.72;;;22.20;99.90;;;;;;5073734;28;20028;-73
2023/07/10 04:34:21;;;;;;;17.42;6.90;;;22.20;99.90;;;;;;5073315;28;20052;-72
2023/07/10 04:36:47;;;;;;;17.77;6.70;;;22.20;99.90;;;;;;5073694;28;20024;-72
2023/07/10 04:39:12;;;;;;;13.30;6.88;;;22.00;99.90;;;;;;5073437;28;20128;-73
2023/07/10 04:41:38;;;;;;;13.93;7.03;;;22.00;99.90;;;;;;5073221;28;20024;-73
2023/07/10 04:44:05;;;;;;;13.75;7.18;;;22.00;99.90;;;;;;5073642;28;20016;-73
2023/07/10 04:46:31;;;;;;;18.00;8.25;;;22.00;99.90;;;;;;5073327;28;20021;-73
2023/07/10 04:48:56;;;;;;;15.13;8.60;;;21.90;99.90;;;;;;5073114;28;20041;-73
2023/07/10 04:51:22;;;;;;;19.38;8.40;;;22.00;99.90;;;;;;5072513;28;20064;-72
2023/07/10 04:53:48;;;;;;;18.63;8.48;;;22.00;99.90;;;;;;5073310;28;20044;-73
2023/07/10 04:56:16;;;;;;;21.45;7.70;;;22.10;99.90;;;;;;5072334;28;20490;-73
2023/07/10 04:58:49;;;;;;;;;;;22.20;99.90;;;;;;5073595;28;20044;-73
2023/07/10 05:01:15;;;;;;;20.13;7.95;;;22.10;99.90;;;;;;5072911;28;19982;-72
2023/07/10 05:03:41;;;;;;;16.20;8.70;;;22.10;99.90;;;;;;5072883;28;20048;-73
2023/07/10 05:06:06;;;;;;;17.45;7.90;;;22.10;99.90;;;;;;5072852;28;20056;-72
2023/07/10 05:08:32;;;;;;;19.48;8.80;;;22.00;99.90;;;;;;5072962;28;20025;-72
2023/07/10 05:10:58;;;;;;;18.05;10.40;;;22.10;99.90;;;;;;5073205;28;20657;-73
2023/07/10 05:13:26;;;;;;;20.15;11.07;;;22.10;99.90;;;;;;5072897;28;20032;-70
2023/07/10 05:15:52;;;;;;;;;;;22.10;99.90;;;;;;5073316;28;20285;-71
2023/07/10 05:18:18;;;;;;;21.58;11.35;;;22.00;99.90;;;;;;5072791;28;19912;-72
2023/07/10 05:20:45;;;;;;;26.05;14.18;;;22.10;99.90;;;;;;5072966;28;20033;-72
2023/07/10 05:23:11;;;;;;;22.05;12.50;;;22.10;99.90;;;;;;5072167;28;20024;-73
2023/07/10 05:25:37;;;;;;;22.83;13.32;;;22.20;99.90;;;;;;5072998;28;20029;-73
2023/07/10 05:28:03;;;;;;;20.50;12.75;;;22.10;99.90;;;;;;5072585;28;20100;-73
2023/07/10 05:30:29;;;;;;;19.58;14.00;;;22.10;99.90;;;;;;5071689;28;20025;-72
2023/07/10 05:32:55;;;;;;;18.20;12.80;;;22.00;99.90;;;;;;5072338;28;20143;-71
2023/07/10 05:35:21;;;;;;;25.70;14.85;;;21.90;99.90;;;;;;5072594;28;20504;-73
2023/07/10 05:37:47;;;;;;;23.73;14.77;;;21.80;99.90;;;;;;5073007;28;20029;-73
2023/07/10 05:40:13;;;;;;;26.85;15.35;;;21.70;99.90;;;;;;5072382;28;20040;-71
2023/07/10 05:42:39;;;;;;;19.48;11.80;;;21.70;99.90;;;;;;5072254;28;20363;-72
2023/07/10 05:45:06;;;;;;;23.55;15.45;;;21.80;99.90;;;;;;5072280;28;20423;-71
2023/07/10 05:47:32;;;;;;;27.92;15.48;;;21.80;99.90;;;;;;5071853;28;20029;-72
2023/07/10 05:49:57;;;;;;;21.10;14.23;;;21.60;99.90;;;;;;5073125;28;20095;-74
2023/07/10 05:52:23;;;;;;;27.13;15.45;;;21.60;99.90;;;;;;5072118;28;20067;-72
2023/07/10 05:54:49;;;;;;;25.25;15.60;;;21.70;99.90;;;;;;5056748;28;20029;-73
2023/07/10 05:57:14;;;;;;;27.80;14.75;;;21.60;99.90;;;;;;5051961;28;20017;-72
2023/07/10 05:59:40;;;;;;;26.25;14.25;;;21.70;99.90;;;;;;5051842;28;20118;-73
2023/07/10 06:02:11;;;;;;;22.85;14.63;;;21.70;99.90;;;;;;5052349;28;20397;-73
2023/07/10 06:04:38;;;;;;;24.20;14.25;;;21.70;99.90;;;;;;5052183;28;20091;-73
2023/07/10 06:07:04;;;;;;;20.58;13.30;;;21.60;99.90;;;;;;5051944;28;20048;-72
2023/07/10 06:09:30;;;;;;;22.75;14.07;;;21.50;99.90;;;;;;5050662;28;20524;-71
2023/07/10 06:11:55;;;;;;;20.67;12.45;;;21.50;99.90;;;;;;5050540;28;20036;-73
2023/07/10 06:14:21;;;;;;;18.75;12.77;;;21.50;99.90;;;;;;5051494;28;20036;-73
2023/07/10 06:16:47;;;;;;;20.15;12.32;;;21.40;99.90;;;;;;5052041;28;20622;-72
2023/07/10 06:19:12;;;;;;;17.92;12.38;;;21.40;99.90;;;;;;5050371;28;20036;-72
2023/07/10 06:21:38;;;;;;;18.92;12.10;;;21.50;99.90;;;;;;5050338;28;20040;-72
2023/07/10 06:24:04;;;;;;;19.98;12.57;;;21.50;99.90;;;;;;5051382;28;20043;-73
2023/07/10 06:26:30;;;;;;;20.83;12.98;;;21.50;99.90;;;;;;5051582;28;20093;-73
2023/07/10 06:28:55;;;;;;;20.55;11.95;;;21.60;99.90;;;;;;5051499;28;20439;-71
2023/07/10 06:31:21;;;;;;;20.30;12.85;;;21.60;99.90;;;;;;5051242;28;20025;-73
2023/07/10 06:33:47;;;;;;;18.92;13.13;;;21.50;99.90;;;;;;5050928;28;20064;-73
2023/07/10 06:36:12;;;;;;;21.45;14.02;;;21.50;99.90;;;;;;5051493;28;20477;-72
2023/07/10 06:38:38;;;;;;;24.08;13.52;;;21.40;99.90;;;;;;5051033;28;20029;-73
2023/07/10 06:41:07;;;;;;;27.13;15.35;;;21.50;99.90;;;;;;5051418;28;20182;-74
2023/07/10 06:43:34;;;;;;;31.70;15.18;;;21.40;99.90;;;;;;5051157;28;20165;-73
2023/07/10 06:46:00;;;;;;;22.13;15.00;;;21.50;99.90;;;;;;5051070;28;20036;-68
2023/07/10 06:48:25;;;;;;;25.70;14.18;;;21.60;99.90;;;;;;5050762;28;20033;-69
2023/07/10 06:50:52;;;;;;;23.67;14.20;;;21.50;99.90;;;;;;5051022;28;20071;-70
2023/07/10 06:53:19;;;;;;;25.30;15.57;;;21.50;99.90;;;;;;5051495;28;20111;-72
2023/07/10 06:55:50;;;;;;;24.23;15.57;;;21.50;99.90;;;;;;5050830;28;20481;-71
2023/07/10 06:58:16;;;;;;;23.77;15.18;;;21.50;99.90;;;;;;5049684;28;20112;-71
2023/07/10 07:00:42;;;;;;;24.65;14.82;;;21.50;99.90;;;;;;5048248;28;20348;-72
2023/07/10 07:03:09;;;;;;;23.15;15.13;;;21.40;99.90;;;;;;5051655;28;20033;-69
2023/07/10 07:05:34;;;;;;;30.50;14.77;;;21.60;99.90;;;;;;5050491;28;20279;-71
2023/07/10 07:08:00;;;;;;;30.92;14.43;;;21.60;99.90;;;;;;5052175;28;20033;-71
2023/07/10 07:10:26;;;;;;;22.77;14.77;;;21.50;99.90;;;;;;5050313;28;20473;-73
2023/07/10 07:12:51;;;;;;;26.55;13.80;;;21.50;99.90;;;;;;5051367;28;20511;-73
2023/07/10 07:15:18;;;;;;;21.83;14.05;;;21.60;99.90;;;;;;5051256;28;20125;-71
2023/07/10 07:17:43;;;;;;;30.23;15.00;;;21.60;99.90;;;;;;5051312;28;20025;-70
2023/07/10 07:20:10;;;;;;;22.85;13.13;;;21.50;99.90;;;;;;5051842;28;20474;-71
2023/07/10 07:22:35;;;;;;;22.42;13.07;;;21.50;99.90;;;;;;5051440;28;20083;-72
2023/07/10 07:25:01;;;;;;;23.38;12.35;;;21.50;99.90;;;;;;5051275;28;20021;-73
2023/07/10 07:27:31;;;;;;;19.17;12.35;;;21.60;99.90;;;;;;5051252;28;20036;-72
2023/07/10 07:29:57;;;;;;;18.63;12.18;;;21.50;99.90;;;;;;5051111;28;20024;-76
2023/07/10 07:32:22;;;;;;;22.80;13.65;;;21.70;99.90;;;;;;5051842;28;20043;-77
2023/07/10 07:34:48;;;;;;;20.45;12.73;;;21.70;99.90;;;;;;5051592;28;20436;-76
2023/07/10 07:37:14;;;;;;;20.67;12.43;;;21.60;99.90;;;;;;5051208;28;20095;-77
2023/07/10 07:39:39;;;;;;;24.00;15.20;;;21.60;99.90;;;;;;5051297;28;20444;-76
2023/07/10 07:42:06;;;;;;;21.77;13.60;;;21.60;99.90;;;;;;5051105;28;20359;-74
2023/07/10 07:44:32;;;;;;;27.33;12.52;;;21.70;99.90;;;;;;5050906;28;20021;-71
2023/07/10 07:46:58;;;;;;;24.95;13.07;;;21.70;99.90;;;;;;5051474;28;20541;-71
2023/07/10 07:49:24;;;;;;;23.15;14.27;;;21.50;99.90;;;;;;5051247;28;20032;-77
2023/07/10 07:51:51;;;;;;;21.48;13.05;;;21.60;99.90;;;;;;5051160;28;20025;-73
2023/07/10 07:54:17;;;;;;;22.40;13.52;;;21.60;99.90;;;;;;5054600;28;20649;-68
2023/07/10 07:56:43;;;;;;;21.67;14.10;;;21.60;99.90;;;;;;5057631;28;20127;-78
2023/07/10 07:59:09;;;;;;;22.17;13.68;;;21.60;99.90;;;;;;5056649;28;20033;-73
2023/07/10 08:01:35;;;;;;;23.60;12.27;;;21.60;99.90;;;;;;5057338;28;20448;-72
2023/07/10 08:04:01;;;;;;;22.38;12.73;;;21.60;99.90;;;;;;5055602;28;20052;-72
2023/07/10 08:06:28;;;;;;;18.45;12.20;;;21.60;99.90;;;;;;5056672;28;20032;-73
2023/07/10 08:08:53;;;;;;;21.33;12.55;;;21.70;99.90;;;;;;5056975;28;20524;-73
2023/07/10 08:11:20;;;;;;;19.85;12.15;;;21.70;99.90;;;;;;5057078;28;20033;-73
2023/07/10 08:13:46;;;;;;;16.90;11.35;;;21.60;99.90;;;;;;5075419;28;20040;-72
2023/07/10 08:16:12;;;;;;;21.02;11.52;;;21.60;99.90;;;;;;5076655;28;20032;-72
2023/07/10 08:18:40;;;;;;;15.88;10.38;;;21.70;99.90;;;;;;5076460;27;20040;-71
2023/07/10 08:21:09;;;;;;;17.88;10.02;;;21.80;99.90;;;;;;5076588;28;20036;-73
2023/07/10 08:23:35;;;;;;;16.90;10.60;;;21.70;99.90;;;;;;5076348;28;20028;-73
2023/07/10 08:26:01;;;;;;;16.75;10.60;;;21.80;99.90;;;;;;5077049;28;20051;-71
2023/07/10 08:28:27;;;;;;;18.60;10.75;;;21.70;99.90;;;;;;5075233;28;20032;-73
2023/07/10 08:30:53;;;;;;;18.77;10.13;;;21.70;99.90;;;;;;5076715;28;20082;-71
2023/07/10 08:33:19;;;;;;;13.40;10.15;;;21.70;99.90;;;;;;5076475;28;20466;-72
2023/07/10 08:35:53;;;;;;;16.05;10.30;;;21.80;99.90;;;;;;5075310;28;20036;-72
2023/07/10 08:38:19;;;;;;;15.63;9.40;;;21.90;99.90;;;;;;5075775;28;20032;-72
2023/07/10 08:40:50;;;;;;;18.63;10.18;;;22.00;99.90;;;;;;5076721;28;20129;-73
2023/07/10 08:43:26;;;;;;;14.68;8.32;;;22.10;99.90;;;;;;5076184;28;20489;-72
2023/07/10 08:45:54;;;;;;;12.70;8.88;;;22.40;99.90;;;;;;5076413;28;20458;-72
2023/07/10 08:48:38;;;;;;;14.20;9.32;;;22.70;99.90;;;;;;5076288;28;20492;-70
2023/07/10 08:51:21;;;;;;;16.27;8.82;;;23.20;99.90;;;;;;5076449;28;20044;-73
2023/07/10 08:54:06;;;;;;;12.35;7.25;;;23.50;99.90;;;;;;5076127;28;20058;-72
2023/07/10 08:56:35;;;;;;;13.32;6.65;;;23.50;99.90;;;;;;5076606;28;20032;-73
2023/07/10 08:59:15;;;;;;;18.90;7.05;;;23.50;99.90;;;;;;5076651;28;20013;-72
2023/07/10 09:01:46;;;;;;;12.93;7.20;;;23.50;99.90;;;;;;5076049;28;20082;-70
2023/07/10 09:04:17;;;;;;;11.88;6.72;;;23.40;99.90;;;;;;5076060;28;20070;-70
2023/07/10 09:06:49;;;;;;;12.05;6.10;;;23.40;99.90;;;;;;5071817;28;20024;-70
2023/07/10 09:09:30;;;;;;;14.07;7.45;;;23.40;99.90;;;;;;5072721;28;20061;-72
2023/07/10 09:12:00;;;;;;;14.20;6.55;;;23.20;99.90;;;;;;5073042;28;20097;-70
2023/07/10 09:14:35;;;;;;;11.48;6.82;;;23.20;99.90;;;;;;5072725;28;20496;-71
2023/07/10 09:17:11;;;;;;;13.88;7.85;;;23.20;99.90;;;;;;5072307;28;20029;-71
2023/07/10 09:19:39;;;;;;;13.85;7.80;;;23.10;99.90;;;;;;5072514;28;20024;-73
2023/07/10 09:22:08;;;;;;;22.48;8.48;;;23.10;99.90;;;;;;5071497;28;20037;-73
2023/07/10 09:24:34;;;;;;;13.50;7.75;;;23.20;99.90;;;;;;5072618;28;20025;-70
2023/07/10 09:26:59;;;;;;;13.77;7.75;;;23.10;99.90;;;;;;5072349;28;20085;-72
2023/07/10 09:29:29;;;;;;;18.85;7.75;;;23.30;99.90;;;;;;5072344;28;20039;-69
2023/07/10 09:32:00;;;;;;;14.93;7.05;;;23.40;99.90;;;;;;5073165;28;20070;-71
2023/07/10 09:34:29;;;;;;;16.40;7.78;;;23.40;99.90;;;;;;5072325;28;20048;-70
2023/07/10 09:36:57;;;;;;;12.60;6.85;;;23.40;99.90;;;;;;5072701;28;20040;-71
2023/07/10 09:39:31;;;;;;;10.35;6.82;;;23.40;99.90;;;;;;5071240;28;20051;-68
2023/07/10 09:42:02;;;;;;;14.00;6.53;;;23.60;99.90;;;;;;5072140;28;20040;-71
2023/07/10 09:44:35;;;;;;;10.60;6.43;;;23.80;99.90;;;;;;5071131;28;20070;-70
2023/07/10 09:47:13;;;;;;;13.23;6.75;;;24.10;99.90;;;;;;5073246;28;20088;-71
2023/07/10 09:49:50;;;;;;;13.45;6.28;;;24.20;99.90;;;;;;5071941;28;20037;-72
2023/07/10 09:52:24;;;;;;;12.45;4.63;;;24.40;99.90;;;;;;5071132;28;20106;-72
2023/07/10 09:55:12;;;;;;;8.63;5.05;;;24.50;99.90;;;;;;5072108;28;20020;-72
2023/07/10 09:57:50;;;;;;;11.02;4.90;;;24.50;99.90;;;;;;5071998;28;20044;-73
2023/07/10 10:00:17;;;;;;;10.63;4.53;;;24.60;99.80;;;;;;5071889;28;20056;-69
2023/07/10 10:02:48;;;;;;;6.95;4.00;;;24.60;99.30;;;;;;5072066;28;20036;-72
2023/07/10 10:05:17;;;;;;;9.10;3.95;;;24.50;99.20;;;;;;5072213;28;20039;-70
2023/07/10 10:07:48;;;;;;;9.25;4.45;;;24.40;99.10;;;;;;5071784;28;20112;-71
2023/07/10 10:10:22;;;;;;;13.00;4.90;;;24.50;99.20;;;;;;5071864;28;20025;-72
2023/07/10 10:12:56;;;;;;;9.88;5.82;;;24.50;99.30;;;;;;5071802;28;20463;-71
2023/07/10 10:15:41;;;;;;;10.38;5.32;;;24.50;99.60;;;;;;5071727;28;20039;-69
2023/07/10 10:18:16;;;;;;;11.48;5.70;;;24.50;99.90;;;;;;5071307;28;20033;-75
2023/07/10 10:20:42;;;;;;;12.50;5.15;;;24.80;99.60;;;;;;5071687;28;20028;-72
2023/07/10 10:23:32;;;;;;;9.90;5.90;;;25.10;99.60;;;;;;5070816;28;20090;-73
2023/07/10 10:26:20;;;;;;;8.88;5.35;;;25.30;98.80;;;;;;5071640;28;20466;-73
2023/07/10 10:29:05;;;;;;;6.70;3.70;;;25.60;98.50;;;;;;5071915;28;20056;-73
2023/07/10 10:31:42;;;;;;;8.75;3.83;;;25.70;97.50;;;;;;5060616;28;20082;-71
2023/07/10 10:34:13;;;;;;;9.07;4.78;;;25.90;97.10;;;;;;5071025;28;20076;-72
2023/07/10 10:37:11;;;;;;;9.07;4.60;;;25.90;97.30;;;;;;5071058;28;20024;-72
2023/07/10 10:39:39;;;;;;;7.78;4.13;;;25.80;96.90;;;;;;5071258;28;20059;-71
2023/07/10 10:42:14;;;;;;;7.40;4.20;;;25.70;97.40;;;;;;5071221;28;20416;-71
2023/07/10 10:45:00;;;;;;;13.52;4.80;;;25.70;97.20;;;;;;5070868;28;20439;-71
2023/07/10 10:47:40;;;;;;;10.30;5.33;;;25.60;97.20;;;;;;5071204;28;20029;-70
2023/07/10 10:50:39;;;;;;;11.07;4.03;;;25.50;97.20;;;;;;5071590;28;20104;-75
2023/07/10 10:53:26;;;;;;;8.77;4.05;;;25.70;96.80;;;;;;5060304;28;20189;-74
2023/07/10 10:56:18;;;;;;;7.45;4.65;;;25.70;96.90;;;;;;5071144;28;20079;-71
2023/07/10 10:59:20;;;;;;;12.25;3.40;;;25.90;96.50;;;;;;5070740;28;20104;-73
2023/07/10 11:01:56;;;;;;;7.63;3.42;;;26.20;96.30;;;;;;5070782;28;20040;-70
2023/07/10 11:04:25;;;;;;;5.55;2.95;;;26.40;96.20;;;;;;5070703;28;20405;-71
2023/07/10 11:07:05;;;;;;;5.88;3.20;;;26.50;95.30;;;;;;5070777;28;20462;-70
2023/07/10 11:09:55;;;;;;;8.15;3.72;;;26.50;94.00;;;;;;5070604;28;20455;-70
2023/07/10 11:12:28;;;;;;;7.32;3.33;;;26.50;94.30;;;;;;5070804;28;20025;-70
2023/07/10 11:14:59;;;;;;;8.48;3.50;;;26.40;94.00;;;;;;5063143;28;20037;-71
2023/07/10 11:17:25;;;;;;;15.23;3.38;;;26.50;94.20;;;;;;5071458;28;20526;-72
2023/07/10 11:19:53;;;;;;;5.10;3.08;;;26.60;94.30;;;;;;5071819;28;20465;-71
2023/07/10 11:22:47;;;;;;;8.95;3.33;;;26.50;94.30;;;;;;5071419;28;20071;-71
2023/07/10 11:25:29;;;;;;;5.75;2.65;;;26.50;93.40;;;;;;5071256;28;20032;-72
2023/07/10 11:27:55;;;;;;;4.95;2.30;;;26.50;93.50;;;;;;5071029;28;20351;-72
2023/07/10 11:30:33;;;;;;;7.03;2.25;;;26.70;93.00;;;;;;5069516;28;20043;-74
2023/07/10 11:33:14;;;;;;;2.58;1.70;;;26.70;92.50;;;;;;5071151;28;20081;-73
2023/07/10 11:36:16;;;;;;;3.72;1.95;;;26.80;91.90;;;;;;5070353;28;20021;-78
2023/07/10 11:39:09;;;;;;;2.72;2.03;;;26.70;91.20;;;;;;5070517;28;20039;-76
2023/07/10 11:41:44;;;;;;;6.63;2.05;;;26.40;91.30;;;;;;5071981;28;20035;-78
2023/07/10 11:44:29;;;;;;;5.93;2.13;;;26.40;91.40;;;;;;5071945;28;20033;-75
2023/07/10 11:46:57;;;;;;;4.68;2.28;;;26.50;91.20;;;;;;5071694;28;20431;-76
2023/07/10 11:49:42;;;;;;;6.65;2.15;;;26.40;91.40;;;;;;5071392;28;20040;-69
2023/07/10 11:52:23;;;;;;;6.43;2.60;;;26.10;91.60;;;;;;5070113;28;20040;-69
2023/07/10 11:54:49;;;;;;;4.57;2.00;;;26.00;92.20;;;;;;5071203;28;20033;-70
2023/07/10 11:57:33;;;;;;;5.07;2.28;;;26.10;92.30;;;;;;5071224;28;20319;-71
2023/07/10 12:00:13;;;;;;;6.22;2.75;;;26.00;92.40;;;;;;5070899;28;20401;-70
2023/07/10 12:02:55;;;;;;;8.15;4.38;;;26.00;92.50;;;;;;5070844;28;20024;-70
2023/07/10 12:05:33;;;;;;;8.15;2.65;;;26.10;92.30;;;;;;5071139;28;20032;-69
2023/07/10 12:08:01;;;;;;;5.32;2.28;;;26.30;92.30;;;;;;5071321;28;20020;-70
2023/07/10 12:10:28;;;;;;;;;;;26.30;92.20;;;;;;5070361;28;20035;-75
2023/07/10 12:12:56;;;;;;;3.80;2.33;;;26.30;92.10;;;;;;5071329;28;19917;-75
2023/07/10 12:15:22;;;;;;;6.63;2.50;;;26.40;92.00;;;;;;5070696;28;20124;-71
2023/07/10 12:17:50;;;;;;;10.40;2.95;;;26.50;91.80;;;;;;5069731;28;20028;-73
2023/07/10 12:20:24;;;;;;;7.47;1.98;;;26.50;91.50;;;;;;5071435;28;20102;-72
2023/07/10 12:22:52;;;;;;;6.70;2.05;;;26.40;91.00;;;;;;5071519;28;20423;-72
2023/07/10 12:25:18;;;;;;;3.10;1.70;;;26.50;91.00;;;;;;5070871;28;20040;-72
2023/07/10 12:27:44;;;;;;;5.43;1.95;;;26.40;90.20;;;;;;5069580;28;20659;-73
2023/07/10 12:30:21;;;;;;;2.85;1.77;;;26.40;90.00;;;;;;5070479;28;20028;-72
2023/07/10 12:32:49;;;;;;;6.60;2.03;;;26.10;89.90;;;;;;5070505;28;20416;-72
2023/07/10 12:35:22;;;;;;;6.93;2.30;;;26.00;90.00;;;;;;5071098;28;20473;-72
2023/07/10 12:37:49;;;;;;;3.80;2.17;;;26.20;90.30;;;;;;5070745;28;20374;-72
2023/07/10 12:40:17;;;;;;;5.68;1.88;;;26.20;90.00;;;;;;5071086;28;20108;-71
2023/07/10 12:42:45;;;;;;;10.63;2.47;;;26.20;89.70;;;;;;5074351;28;20098;-72
2023/07/10 12:45:28;;;;;;;7.15;1.92;;;26.20;89.70;;;;;;5074137;28;20039;-72
2023/07/10 12:48:02;;;;;;;6.57;1.90;;;25.80;89.20;;;;;;5074277;28;20060;-70
2023/07/10 12:50:34;;;;;;;7.03;2.30;;;25.90;89.80;;;;;;5074694;28;20025;-71